createdAt,value
2023-04-12T00:00:00.474Z,65.34
2023-04-12T00:01:00.427Z,65.55
2023-04-12T00:02:00.487Z,65.86
2023-04-12T00:03:00.502Z,66.27
2023-04-12T00:04:00.695Z,66.48
2023-04-12T00:05:00.677Z,66.93
2023-04-12T00:06:00.401Z,67.34
2023-04-12T00:07:00.374Z,67.75
2023-04-12T00:08:00.383Z,67.75
2023-04-12T00:09:00.374Z,68.16
2023-04-12T00:10:00.666Z,68.58
2023-04-12T00:11:00.324Z,68.37
2023-04-12T00:12:00.354Z,68.06
2023-04-12T00:13:00.359Z,67.85
2023-04-12T00:14:00.351Z,68.16
2023-04-12T00:15:00.344Z,67.65
2023-04-12T00:16:00.376Z,67.93
2023-04-12T00:17:00.282Z,68.34
2023-04-12T00:18:00.341Z,67.82
2023-04-12T00:19:00.250Z,68.27
2023-04-12T00:20:00.327Z,68.06
2023-04-12T00:21:00.246Z,67.85
2023-04-12T00:22:00.239Z,67.96
2023-04-12T00:23:00.212Z,68.27
2023-04-12T00:24:00.226Z,68.48
2023-04-12T00:25:00.387Z,68.78
2023-04-12T00:26:00.244Z,68.37
2023-04-12T00:27:00.165Z,68.27
2023-04-12T00:28:00.198Z,68.27
2023-04-12T00:29:00.166Z,68.06
2023-04-12T00:30:00.226Z,67.82
2023-04-12T00:31:00.205Z,67.93
2023-04-12T00:32:00.149Z,67.93
2023-04-12T00:33:00.198Z,67.93
2023-04-12T00:34:00.174Z,67.51
2023-04-12T00:35:00.335Z,68.16
2023-04-12T00:36:00.196Z,68.27
2023-04-12T00:37:00.076Z,68.58
2023-04-12T00:38:00.100Z,68.58
2023-04-12T00:39:00.117Z,68.68
2023-04-12T00:40:00.082Z,69.20
2023-04-12T00:41:00.034Z,69.64
2023-04-12T00:42:00.208Z,69.95
2023-04-12T00:43:00.020Z,69.95
2023-04-12T00:44:00.053Z,70.16
2023-04-12T00:44:59.998Z,69.95
2023-04-12T00:46:00.016Z,69.64
2023-04-12T00:47:00.077Z,69.54
2023-04-12T00:48:00.010Z,69.33
2023-04-12T00:48:59.981Z,69.43
2023-04-12T00:49:59.959Z,69.54
2023-04-12T00:50:59.934Z,69.54
2023-04-12T00:51:59.950Z,69.74
2023-04-12T00:52:59.930Z,69.85
2023-04-12T00:53:59.962Z,70.06
2023-04-12T00:54:59.890Z,69.85
2023-04-12T00:55:59.892Z,69.61
2023-04-12T00:56:59.869Z,69.54
2023-04-12T00:57:59.900Z,69.64
2023-04-12T00:58:59.844Z,69.43
2023-04-12T00:59:59.861Z,69.64
2023-04-12T01:00:59.831Z,69.54
2023-04-12T01:01:59.895Z,69.43
2023-04-12T01:02:59.927Z,69.64
2023-04-12T01:03:59.943Z,69.33
2023-04-12T01:04:59.776Z,69.54
2023-04-12T01:05:59.799Z,69.67
2023-04-12T01:06:59.762Z,69.74
2023-04-12T01:07:59.796Z,69.43
2023-04-12T01:08:59.752Z,69.23
2023-04-12T01:09:59.744Z,69.12
2023-04-12T01:10:59.723Z,69.23
2023-04-12T01:11:59.729Z,69.02
2023-04-12T01:12:59.730Z,69.02
2023-04-12T01:13:59.729Z,68.82
2023-04-12T01:14:59.675Z,68.71
2023-04-12T01:15:59.758Z,68.61
2023-04-12T01:16:59.677Z,68.61
2023-04-12T01:17:59.675Z,68.51
2023-04-12T01:18:59.634Z,68.51
2023-04-12T01:19:59.681Z,68.48
2023-04-12T01:20:59.771Z,68.37
2023-04-12T01:21:59.625Z,68.37
2023-04-12T01:22:59.591Z,68.16
2023-04-12T01:23:59.600Z,68.03
2023-04-12T01:24:59.623Z,67.93
2023-04-12T01:25:59.641Z,67.51
2023-04-12T01:26:59.561Z,67.00
2023-04-12T01:27:59.567Z,67.00
2023-04-12T01:28:59.530Z,66.79
2023-04-12T01:29:59.586Z,66.79
2023-04-12T01:30:59.512Z,67.10
2023-04-12T01:31:59.608Z,67.00
2023-04-12T01:32:59.552Z,67.21
2023-04-12T01:33:59.696Z,67.41
2023-04-12T01:34:59.477Z,67.41
2023-04-12T01:35:59.567Z,67.61
2023-04-12T01:36:59.459Z,67.41
2023-04-12T01:37:59.454Z,67.61
2023-04-12T01:38:59.426Z,68.06
2023-04-12T01:39:59.449Z,68.13
2023-04-12T01:40:59.437Z,68.03
2023-04-12T01:41:59.467Z,68.03
2023-04-12T01:42:59.385Z,68.03
2023-04-12T01:43:59.600Z,67.93
2023-04-12T01:44:59.370Z,68.99
2023-04-12T01:45:59.394Z,69.95
2023-04-12T01:46:59.386Z,70.37
2023-04-12T01:47:59.389Z,70.26
2023-04-12T01:48:59.334Z,70.67
2023-04-12T01:49:59.338Z,70.29
2023-04-12T01:50:59.314Z,71.02
2023-04-12T01:51:59.351Z,71.22
2023-04-12T01:52:59.305Z,71.53
2023-04-12T01:53:59.464Z,71.43
2023-04-12T01:54:59.268Z,71.74
2023-04-12T01:55:59.287Z,71.53
2023-04-12T01:56:59.276Z,71.53
2023-04-12T01:57:59.269Z,71.53
2023-04-12T01:58:59.227Z,71.64
2023-04-12T01:59:59.244Z,71.43
2023-04-12T02:00:59.267Z,71.53
2023-04-12T02:01:59.330Z,71.33
2023-04-12T02:02:59.356Z,71.02
2023-04-12T02:03:59.774Z,71.12
2023-04-12T02:04:59.161Z,70.98
2023-04-12T02:05:59.182Z,71.09
2023-04-12T02:06:59.164Z,71.19
2023-04-12T02:07:59.413Z,71.30
2023-04-12T02:08:59.151Z,71.12
2023-04-12T02:09:59.133Z,71.09
2023-04-12T02:10:59.100Z,71.43
2023-04-12T02:11:59.125Z,71.64
2023-04-12T02:12:59.092Z,71.74
2023-04-12T02:13:59.366Z,71.74
2023-04-12T02:14:59.074Z,71.64
2023-04-12T02:15:59.085Z,71.61
2023-04-12T02:16:59.065Z,71.40
2023-04-12T02:17:59.101Z,70.98
2023-04-12T02:18:59.034Z,71.09
2023-04-12T02:19:59.060Z,71.19
2023-04-12T02:20:59.050Z,71.40
2023-04-12T02:21:59.011Z,71.06
2023-04-12T02:22:59.002Z,70.75
2023-04-12T02:23:59.022Z,70.75
2023-04-12T02:24:59.009Z,70.85
2023-04-12T02:25:58.944Z,70.75
2023-04-12T02:26:58.961Z,70.54
2023-04-12T02:27:58.922Z,70.33
2023-04-12T02:28:58.958Z,69.82
2023-04-12T02:29:58.901Z,69.68
2023-04-12T02:30:58.969Z,69.37
2023-04-12T02:31:58.891Z,69.37
2023-04-12T02:32:58.995Z,69.48
2023-04-12T02:33:58.879Z,69.17
2023-04-12T02:34:58.887Z,68.65
2023-04-12T02:35:58.889Z,68.54
2023-04-12T02:36:58.867Z,68.65
2023-04-12T02:37:58.836Z,68.54
2023-04-12T02:38:58.846Z,68.30
2023-04-12T02:39:58.804Z,68.00
2023-04-12T02:40:58.827Z,67.90
2023-04-12T02:41:58.835Z,67.79
2023-04-12T02:42:58.805Z,67.48
2023-04-12T02:43:58.956Z,66.86
2023-04-12T02:44:58.791Z,66.55
2023-04-12T02:45:58.801Z,66.66
2023-04-12T02:46:58.774Z,66.66
2023-04-12T02:47:58.938Z,66.24
2023-04-12T02:48:58.744Z,66.24
2023-04-12T02:49:58.710Z,66.24
2023-04-12T02:50:58.723Z,66.21
2023-04-12T02:51:58.688Z,66.11
2023-04-12T02:52:58.736Z,65.28
2023-04-12T02:53:58.816Z,65.18
2023-04-12T02:54:58.843Z,65.52
2023-04-12T02:55:58.645Z,65.73
2023-04-12T02:56:58.702Z,65.83
2023-04-12T02:57:58.647Z,65.83
2023-04-12T02:58:58.634Z,65.62
2023-04-12T02:59:58.628Z,65.73
2023-04-12T03:00:58.634Z,66.04
2023-04-12T03:01:58.795Z,66.14
2023-04-12T03:02:58.745Z,66.14
2023-04-12T03:03:58.847Z,65.94
2023-04-12T03:04:58.612Z,66.14
2023-04-12T03:05:58.538Z,66.14
2023-04-12T03:06:58.545Z,66.24
2023-04-12T03:08:23.476Z,66.66
2023-04-12T03:08:58.543Z,66.86
2023-04-12T03:09:58.522Z,67.07
2023-04-12T03:10:58.513Z,67.07
2023-04-12T03:11:58.717Z,67.48
2023-04-12T03:12:58.509Z,67.27
2023-04-12T03:13:58.561Z,67.27
2023-04-12T03:14:58.473Z,67.17
2023-04-12T03:15:58.723Z,66.97
2023-04-12T03:16:58.457Z,66.86
2023-04-12T03:17:58.490Z,66.86
2023-04-12T03:18:58.425Z,66.86
2023-04-12T03:19:58.420Z,67.07
2023-04-12T03:20:58.403Z,67.38
2023-04-12T03:21:58.378Z,67.90
2023-04-12T03:22:58.388Z,68.10
2023-04-12T03:23:58.608Z,69.06
2023-04-12T03:24:58.409Z,68.82
2023-04-12T03:25:58.353Z,68.30
2023-04-12T03:26:58.349Z,68.41
2023-04-12T03:27:58.316Z,68.51
2023-04-12T03:28:58.354Z,68.82
2023-04-12T03:29:58.292Z,69.03
2023-04-12T03:30:58.349Z,69.85
2023-04-12T03:31:58.281Z,69.85
2023-04-12T03:32:58.332Z,70.17
2023-04-12T03:33:58.386Z,70.37
2023-04-12T03:34:58.279Z,71.09
2023-04-12T03:35:58.323Z,70.57
2023-04-12T03:36:58.265Z,70.17
2023-04-12T03:37:58.209Z,70.17
2023-04-12T03:38:58.214Z,70.99
2023-04-12T03:39:58.206Z,71.30
2023-04-12T03:40:58.218Z,71.61
2023-04-12T03:41:58.161Z,72.13
2023-04-12T03:42:59.993Z,71.81
2023-04-12T03:43:58.390Z,71.71
2023-04-12T03:44:58.185Z,72.13
2023-04-12T03:45:58.149Z,72.13
2023-04-12T03:46:58.139Z,71.92
2023-04-12T03:47:58.154Z,71.51
2023-04-12T03:48:58.117Z,71.61
2023-04-12T03:50:10.980Z,73.36
2023-04-12T03:50:58.111Z,72.95
2023-04-12T03:51:58.070Z,73.36
2023-04-12T03:52:58.100Z,73.05
2023-04-12T03:53:58.329Z,73.88
2023-04-12T03:54:58.057Z,74.19
2023-04-12T03:55:58.026Z,74.29
2023-04-12T03:56:58.067Z,73.29
2023-04-12T03:57:58.030Z,73.91
2023-04-12T03:58:58.024Z,75.05
2023-04-12T03:59:57.993Z,74.12
2023-04-12T04:00:57.997Z,75.15
2023-04-12T04:01:58.002Z,75.26
2023-04-12T04:02:58.113Z,76.29
2023-04-12T04:03:58.382Z,75.15
2023-04-12T04:04:57.984Z,75.15
2023-04-12T04:05:57.918Z,75.67
2023-04-12T04:06:57.938Z,75.87
2023-04-12T04:07:58.157Z,76.18
2023-04-12T04:08:57.923Z,77.11
2023-04-12T04:09:57.891Z,76.18
2023-04-12T04:10:57.897Z,75.77
2023-04-12T04:11:57.875Z,77.25
2023-04-12T04:12:57.876Z,77.87
2023-04-12T04:13:58.162Z,77.32
2023-04-12T04:14:57.803Z,77.42
2023-04-12T04:15:57.870Z,77.84
2023-04-12T04:16:57.794Z,77.73
2023-04-12T04:17:57.830Z,77.53
2023-04-12T04:18:57.763Z,77.63
2023-04-12T04:19:57.728Z,78.45
2023-04-12T04:20:57.748Z,78.77
2023-04-12T04:21:57.702Z,79.80
2023-04-12T04:22:57.738Z,79.38
2023-04-12T04:23:58.104Z,79.11
2023-04-12T04:24:57.771Z,78.28
2023-04-12T04:25:57.670Z,79.73
2023-04-12T04:26:57.702Z,79.42
2023-04-12T04:27:57.652Z,80.15
2023-04-12T04:28:57.672Z,79.52
2023-04-12T04:29:57.635Z,79.83
2023-04-12T04:30:58.163Z,80.35
2023-04-12T04:31:57.866Z,80.97
2023-04-12T04:32:57.828Z,80.97
2023-04-12T04:33:57.759Z,81.70
2023-04-12T04:34:57.605Z,82.10
2023-04-12T04:35:57.648Z,82.10
2023-04-12T04:36:57.622Z,83.14
2023-04-12T04:37:57.573Z,83.14
2023-04-12T04:38:57.588Z,83.76
2023-04-12T04:39:57.534Z,84.28
2023-04-12T04:40:57.598Z,83.04
2023-04-12T04:41:57.578Z,83.14
2023-04-12T04:42:57.518Z,82.73
2023-04-12T04:43:57.681Z,83.14
2023-04-12T04:44:57.521Z,83.25
2023-04-12T04:45:57.528Z,83.14
2023-04-12T04:46:57.484Z,83.65
2023-04-12T04:47:57.484Z,83.76
2023-04-12T04:48:57.461Z,84.38
2023-04-12T04:49:57.424Z,84.48
2023-04-12T04:50:57.773Z,84.28
2023-04-12T04:51:57.795Z,85.10
2023-04-12T04:52:57.434Z,84.59
2023-04-12T04:53:57.886Z,85.17
2023-04-12T04:54:57.415Z,85.17
2023-04-12T04:55:57.919Z,84.65
2023-04-12T04:56:58.070Z,85.17
2023-04-12T04:57:57.363Z,85.47
2023-04-12T04:58:57.419Z,84.75
2023-04-12T04:59:57.328Z,85.06
2023-04-12T05:00:57.453Z,85.85
2023-04-12T05:01:57.477Z,85.23
2023-04-12T05:02:57.413Z,86.05
2023-04-12T05:03:57.382Z,85.44
2023-04-12T05:04:57.325Z,86.47
2023-04-12T05:05:57.273Z,86.36
2023-04-12T05:06:57.443Z,85.64
2023-04-12T05:07:57.267Z,86.16
2023-04-12T05:08:57.366Z,86.05
2023-04-12T05:09:57.213Z,86.22
2023-04-12T05:10:57.258Z,86.53
2023-04-12T05:11:57.193Z,86.84
2023-04-12T05:12:57.232Z,86.22
2023-04-12T05:13:57.204Z,85.91
2023-04-12T05:15:10.670Z,86.02
2023-04-12T05:15:57.165Z,85.81
2023-04-12T05:16:57.227Z,86.02
2023-04-12T05:17:57.171Z,85.30
2023-04-12T05:18:57.371Z,85.46
2023-04-12T05:19:57.124Z,85.87
2023-04-12T05:20:57.177Z,85.77
2023-04-12T05:21:57.093Z,86.08
2023-04-12T05:22:57.115Z,85.97
2023-04-12T05:23:57.101Z,86.49
2023-04-12T05:24:57.096Z,86.18
2023-04-12T05:25:57.054Z,85.77
2023-04-12T05:26:57.105Z,86.08
2023-04-12T05:27:57.055Z,85.77
2023-04-12T05:28:57.325Z,85.57
2023-04-12T05:29:57.022Z,85.57
2023-04-12T05:30:57.043Z,85.67
2023-04-12T05:31:57.019Z,85.57
2023-04-12T05:32:57.014Z,84.80
2023-04-12T05:33:56.975Z,85.52
2023-04-12T05:34:57.009Z,85.31
2023-04-12T05:35:56.962Z,84.49
2023-04-12T05:36:56.983Z,84.91
2023-04-12T05:37:56.970Z,85.42
2023-04-12T05:38:57.133Z,85.42
2023-04-12T05:39:56.908Z,85.01
2023-04-12T05:40:56.944Z,85.42
2023-04-12T05:41:56.896Z,85.52
2023-04-12T05:42:56.901Z,85.31
2023-04-12T05:43:57.051Z,85.94
2023-04-12T05:44:56.885Z,85.83
2023-04-12T05:45:56.932Z,85.63
2023-04-12T05:46:56.859Z,85.83
2023-04-12T05:47:56.880Z,85.42
2023-04-12T05:48:57.107Z,85.11
2023-04-12T07:38:46.528Z,83.65
2023-04-12T07:39:47.541Z,83.86
2023-04-12T07:40:49.901Z,84.38
2023-04-12T07:41:47.513Z,83.45
2023-04-12T07:42:47.483Z,83.70
2023-04-12T07:43:47.468Z,83.65
2023-04-12T07:44:47.441Z,84.07
2023-04-12T07:45:47.475Z,84.69
2023-04-12T07:46:50.556Z,84.07
2023-04-12T07:47:47.494Z,83.97
2023-04-12T07:48:47.509Z,84.38
2023-04-12T07:49:47.415Z,84.69
2023-04-12T07:50:47.372Z,84.21
2023-04-12T07:51:47.391Z,85.34
2023-04-12T07:52:48.027Z,85.75
2023-04-12T07:53:47.362Z,86.06
2023-04-12T07:54:47.349Z,85.86
2023-04-12T07:55:47.378Z,86.27
2023-04-12T07:56:47.305Z,86.06
2023-04-12T07:57:47.363Z,85.34
2023-04-12T07:58:47.291Z,85.86
2023-04-12T07:59:47.302Z,86.06
2023-04-12T08:00:47.288Z,85.96
2023-04-12T08:01:47.308Z,85.55
2023-04-12T08:02:47.364Z,86.47
2023-04-12T08:03:47.525Z,87.60
2023-04-12T08:04:47.234Z,86.88
2023-04-12T08:05:47.283Z,87.19
2023-04-12T08:06:47.216Z,88.12
2023-04-12T08:07:47.218Z,86.47
2023-04-12T08:08:47.358Z,87.60
2023-04-12T08:09:47.218Z,87.51
2023-04-12T08:10:47.175Z,88.12
2023-04-12T08:11:47.254Z,88.12
2023-04-12T08:12:47.147Z,88.12
2023-04-12T08:13:47.157Z,88.43
2023-04-12T08:14:47.145Z,88.95
2023-04-12T08:15:47.364Z,89.36
2023-04-12T08:16:47.114Z,88.64
2023-04-12T08:17:47.123Z,88.64
2023-04-12T08:18:47.073Z,88.74
2023-04-12T08:19:47.112Z,88.64
2023-04-12T08:20:47.071Z,89.05
2023-04-12T08:21:47.072Z,88.33
2023-04-12T08:22:47.039Z,87.92
2023-04-12T08:23:47.079Z,87.92
2023-04-12T08:24:47.153Z,88.53
2023-04-12T08:25:47.041Z,88.43
2023-04-12T08:26:46.994Z,87.57
2023-04-12T08:27:46.996Z,87.57
2023-04-12T08:28:46.997Z,87.67
2023-04-12T08:29:47.008Z,87.98
2023-04-12T08:30:46.973Z,87.87
2023-04-12T08:31:47.132Z,87.77
2023-04-12T08:32:46.940Z,87.46
2023-04-12T08:33:46.941Z,87.87
2023-04-12T08:35:01.532Z,88.18
2023-04-12T08:35:47.006Z,88.29
2023-04-12T08:36:46.893Z,88.90
2023-04-12T08:37:46.905Z,88.49
2023-04-12T08:38:46.933Z,87.05
2023-04-12T08:39:46.874Z,87.46
2023-04-12T08:40:46.874Z,87.36
2023-04-12T08:41:46.865Z,87.57
2023-04-12T08:42:46.848Z,86.33
2023-04-12T08:43:46.848Z,86.95
2023-04-12T08:44:46.810Z,86.85
2023-04-12T08:45:46.824Z,87.46
2023-04-12T08:46:47.211Z,87.01
2023-04-12T08:47:46.849Z,85.98
2023-04-12T08:48:46.876Z,86.80
2023-04-12T08:49:46.796Z,86.50
2023-04-12T08:50:47.629Z,86.80
2023-04-12T08:51:46.969Z,86.60
2023-04-12T08:52:46.744Z,86.08
2023-04-12T08:53:46.756Z,85.68
2023-04-12T08:54:46.715Z,86.80
2023-04-12T08:55:46.731Z,86.08
2023-04-12T08:56:46.678Z,86.08
2023-04-12T08:57:46.724Z,85.88
2023-04-12T08:58:46.799Z,86.50
2023-04-12T08:59:46.685Z,86.29
2023-04-12T09:00:46.649Z,86.40
2023-04-12T09:01:46.766Z,85.98
2023-04-12T09:02:46.849Z,86.60
2023-04-12T09:03:46.987Z,85.78
2023-04-12T09:04:46.754Z,86.08
2023-04-12T09:05:46.600Z,85.78
2023-04-12T09:06:46.585Z,86.40
2023-04-12T09:07:46.585Z,84.44
2023-04-12T09:08:46.674Z,85.26
2023-04-12T09:09:46.564Z,85.68
2023-04-12T09:10:46.536Z,86.60
2023-04-12T09:11:46.547Z,84.81
2023-04-12T09:12:46.546Z,84.95
2023-04-12T09:13:46.533Z,85.74
2023-04-12T09:14:46.486Z,84.20
2023-04-12T09:15:46.507Z,85.33
2023-04-12T09:16:46.506Z,85.74
2023-04-12T09:17:46.549Z,85.63
2023-04-12T09:18:46.586Z,85.84
2023-04-12T09:19:46.493Z,84.81
2023-04-12T09:20:46.435Z,85.74
2023-04-12T09:21:55.695Z,85.22
2023-04-12T09:22:46.939Z,84.50
2023-04-12T09:23:46.416Z,84.91
2023-04-12T09:24:46.392Z,84.50
2023-04-12T09:25:46.434Z,84.20
2023-04-12T09:26:46.361Z,83.48
2023-04-12T09:27:46.378Z,83.48
2023-04-12T09:28:46.382Z,84.50
2023-04-12T09:29:46.342Z,84.40
2023-04-12T09:30:46.442Z,84.40
2023-04-12T09:31:46.426Z,84.20
2023-04-12T09:32:46.361Z,84.26
2023-04-12T09:33:46.319Z,83.95
2023-04-12T09:34:46.279Z,83.75
2023-04-12T09:35:46.362Z,84.05
2023-04-12T09:36:46.509Z,82.82
2023-04-12T09:37:46.302Z,83.85
2023-04-12T09:38:57.698Z,83.85
2023-04-12T09:39:46.281Z,84.56
2023-04-12T09:40:46.620Z,84.16
2023-04-12T09:41:46.264Z,84.26
2023-04-12T09:42:46.227Z,84.56
2023-04-12T09:43:46.209Z,84.16
2023-04-12T09:44:46.202Z,84.26
2023-04-12T09:45:46.276Z,83.54
2023-04-12T09:46:48.241Z,84.05
2023-04-12T09:47:46.234Z,84.98
2023-04-12T09:48:46.166Z,84.98
2023-04-12T09:49:46.156Z,84.98
2023-04-12T09:50:46.123Z,84.67
2023-04-12T09:51:46.139Z,84.77
2023-04-12T09:52:46.120Z,85.70
2023-04-12T09:53:46.096Z,85.70
2023-04-12T09:54:46.068Z,85.39
2023-04-12T09:55:46.079Z,84.61
2023-04-12T09:56:46.081Z,85.33
2023-04-12T09:57:46.095Z,85.33
2023-04-12T09:58:46.028Z,86.35
2023-04-12T09:59:52.594Z,86.15
2023-04-12T10:00:46.026Z,86.25
2023-04-12T10:01:46.086Z,86.35
2023-04-12T10:02:46.918Z,87.28
2023-04-12T10:03:46.251Z,86.87
2023-04-12T10:04:46.046Z,86.93
2023-04-12T10:05:46.023Z,85.84
2023-04-12T10:06:45.963Z,86.46
2023-04-12T10:07:45.966Z,86.35
2023-04-12T10:08:45.959Z,85.94
2023-04-12T10:09:45.945Z,86.87
2023-04-12T10:10:45.896Z,86.66
2023-04-12T10:11:45.921Z,87.07
2023-04-12T10:12:45.884Z,87.18
2023-04-12T10:13:45.905Z,87.49
2023-04-12T10:14:45.879Z,87.79
2023-04-12T10:15:45.890Z,86.87
2023-04-12T10:16:45.869Z,87.69
2023-04-12T10:17:45.906Z,88.51
2023-04-12T10:18:45.817Z,88.20
2023-04-12T10:19:45.840Z,88.37
2023-04-12T10:20:45.851Z,87.96
2023-04-12T10:21:45.812Z,87.45
2023-04-12T10:22:45.774Z,86.83
2023-04-12T10:23:45.794Z,87.04
2023-04-12T10:24:45.742Z,86.52
2023-04-12T10:25:45.786Z,86.32
2023-04-12T10:26:45.742Z,86.62
2023-04-12T10:27:45.757Z,86.83
2023-04-12T10:28:45.878Z,86.42
2023-04-12T10:29:45.753Z,86.21
2023-04-12T10:30:45.765Z,86.72
2023-04-12T10:31:45.968Z,86.42
2023-04-12T10:32:45.689Z,87.55
2023-04-12T10:33:45.724Z,87.04
2023-04-12T10:34:45.662Z,87.13
2023-04-12T10:35:45.729Z,87.34
2023-04-12T10:36:45.630Z,87.65
2023-04-12T10:37:45.877Z,87.04
2023-04-12T10:38:45.611Z,86.42
2023-04-12T10:39:45.611Z,86.93
2023-04-12T10:40:45.643Z,86.11
2023-04-12T10:41:45.617Z,86.93
2023-04-12T10:42:45.579Z,87.13
2023-04-12T10:43:45.591Z,87.04
2023-04-12T10:44:45.557Z,86.42
2023-04-12T10:45:45.607Z,86.72
2023-04-12T10:46:45.641Z,87.13
2023-04-12T10:47:45.563Z,87.24
2023-04-12T10:48:45.497Z,87.65
2023-04-12T10:49:45.523Z,88.06
2023-04-12T10:50:45.490Z,87.85
2023-04-12T10:51:45.521Z,87.75
2023-04-12T10:52:45.508Z,87.13
2023-04-12T10:53:45.498Z,87.24
2023-04-12T10:54:45.478Z,87.34
2023-04-12T10:55:45.521Z,87.10
2023-04-12T10:56:45.421Z,87.20
2023-04-12T10:57:45.604Z,86.89
2023-04-12T10:58:45.673Z,85.86
2023-04-12T10:59:47.878Z,86.07
2023-04-12T11:00:45.457Z,85.86
2023-04-12T11:01:45.561Z,85.97
2023-04-12T11:02:45.542Z,85.97
2023-04-12T11:03:45.541Z,86.17
2023-04-12T11:04:45.530Z,86.38
2023-04-12T11:05:45.378Z,85.55
2023-04-12T11:06:45.334Z,85.41
2023-04-12T11:07:45.336Z,86.58
2023-04-12T11:08:45.326Z,85.41
2023-04-12T11:09:45.298Z,85.72
2023-04-12T11:10:45.279Z,85.82
2023-04-12T11:11:45.311Z,85.72
2023-04-12T11:12:45.302Z,85.62
2023-04-12T11:13:45.277Z,85.11
2023-04-12T11:14:45.261Z,85.62
2023-04-12T11:15:45.301Z,85.41
2023-04-12T11:16:45.262Z,85.52
2023-04-12T11:17:45.235Z,86.44
2023-04-12T11:18:45.292Z,85.72
2023-04-12T11:19:45.241Z,85.52
2023-04-12T11:20:45.187Z,85.72
2023-04-12T11:21:45.145Z,85.52
2023-04-12T11:22:45.199Z,85.11
2023-04-12T11:23:45.195Z,85.78
2023-04-12T11:24:45.134Z,85.89
2023-04-12T11:25:45.162Z,86.09
2023-04-12T11:26:45.134Z,85.47
2023-04-12T11:27:45.083Z,85.68
2023-04-12T11:28:45.100Z,85.68
2023-04-12T11:29:45.067Z,85.17
2023-04-12T11:30:45.094Z,85.89
2023-04-12T11:31:45.071Z,85.99
2023-04-12T11:32:45.065Z,85.13
2023-04-12T11:33:45.025Z,85.95
2023-04-12T11:34:45.065Z,85.33
2023-04-12T11:35:45.046Z,85.54
2023-04-12T11:36:45.007Z,85.44
2023-04-12T11:37:44.972Z,84.82
2023-04-12T11:38:45.014Z,85.13
2023-04-12T11:39:44.968Z,85.33
2023-04-12T11:40:44.999Z,85.54
2023-04-12T11:41:44.967Z,85.33
2023-04-12T11:42:44.952Z,84.82
2023-04-12T11:43:44.913Z,85.03
2023-04-12T11:44:56.184Z,84.92
2023-04-12T11:45:44.929Z,85.03
2023-04-12T11:46:44.921Z,84.92
2023-04-12T11:47:44.910Z,84.61
2023-04-12T11:48:44.878Z,84.61
2023-04-12T11:49:44.844Z,84.68
2023-04-12T11:50:44.885Z,84.52
2023-04-12T11:51:46.271Z,84.99
2023-04-12T11:52:44.938Z,84.99
2023-04-12T11:53:44.804Z,85.50
2023-04-12T11:54:44.832Z,84.78
2023-04-12T11:55:44.801Z,85.30
2023-04-12T11:56:44.829Z,85.50
2023-04-12T11:57:44.759Z,85.50
2023-04-12T11:58:44.773Z,85.80
2023-04-12T11:59:44.753Z,85.80
2023-04-12T12:00:44.807Z,85.09
2023-04-12T12:01:44.775Z,85.60
2023-04-12T12:02:52.630Z,85.30
2023-04-12T12:03:44.876Z,85.39
2023-04-12T12:04:44.918Z,85.09
2023-04-12T12:05:45.001Z,84.37
2023-04-12T12:06:45.045Z,85.30
2023-04-12T12:07:44.687Z,85.50
2023-04-12T12:08:58.720Z,85.36
2023-04-12T12:09:44.632Z,85.46
2023-04-12T12:10:59.844Z,85.25
2023-04-12T12:11:44.634Z,85.25
2023-04-12T12:12:44.665Z,85.87
2023-04-12T12:13:44.621Z,84.53
2023-04-12T12:14:44.614Z,84.23
2023-04-12T12:15:44.633Z,84.33
2023-04-12T12:16:44.588Z,84.95
2023-04-12T12:17:44.851Z,84.53
2023-04-12T12:18:44.591Z,84.44
2023-04-12T12:19:44.528Z,84.64
2023-04-12T12:20:44.544Z,85.25
2023-04-12T12:21:44.507Z,85.25
2023-04-12T12:22:44.519Z,85.11
2023-04-12T12:23:44.509Z,84.95
2023-04-12T12:24:44.500Z,84.23
2023-04-12T12:25:44.468Z,84.23
2023-04-12T12:26:44.480Z,85.97
2023-04-12T12:27:44.516Z,85.25
2023-04-12T12:28:44.464Z,86.07
2023-04-12T12:29:44.699Z,85.77
2023-04-12T12:30:44.437Z,85.66
2023-04-12T12:31:44.447Z,85.87
2023-04-12T12:32:44.491Z,85.66
2023-04-12T12:34:00.350Z,85.77
2023-04-12T12:34:44.400Z,86.48
2023-04-12T12:35:44.397Z,86.48
2023-04-12T12:36:44.380Z,86.69
2023-04-12T12:37:44.335Z,86.99
2023-04-12T12:38:44.357Z,86.38
2023-04-12T12:39:44.348Z,86.69
2023-04-12T12:40:44.357Z,86.79
2023-04-12T12:41:44.301Z,87.20
2023-04-12T12:42:44.314Z,87.10
2023-04-12T12:43:44.277Z,87.10
2023-04-12T12:44:44.550Z,87.30
2023-04-12T12:45:44.263Z,87.82
2023-04-12T12:46:54.169Z,87.30
2023-04-12T12:47:44.351Z,87.82
2023-04-12T12:48:44.260Z,87.71
2023-04-12T12:49:44.256Z,88.02
2023-04-12T12:50:44.230Z,87.71
2023-04-12T12:51:44.187Z,87.82
2023-04-12T12:52:44.206Z,88.12
2023-04-12T12:53:44.177Z,87.51
2023-04-12T12:54:44.224Z,87.92
2023-04-12T12:55:44.204Z,88.39
2023-04-12T12:56:44.404Z,88.29
2023-04-12T12:57:44.425Z,88.08
2023-04-12T12:58:44.169Z,87.67
2023-04-12T12:59:44.110Z,87.88
2023-04-12T13:00:44.135Z,87.77
2023-04-12T13:01:44.213Z,87.98
2023-04-12T13:02:44.418Z,87.98
2023-04-12T13:03:44.297Z,88.08
2023-04-12T13:04:44.156Z,88.29
2023-04-12T13:05:44.076Z,87.77
2023-04-12T13:06:44.082Z,88.18
2023-04-12T13:07:44.044Z,88.65
2023-04-12T13:08:44.043Z,87.98
2023-04-12T13:09:44.005Z,87.63
2023-04-12T13:10:44.053Z,87.22
2023-04-12T13:11:44.020Z,87.12
2023-04-12T13:12:43.999Z,87.12
2023-04-12T13:13:43.961Z,86.30
2023-04-12T13:14:43.979Z,85.99
2023-04-12T13:15:43.937Z,85.96
2023-04-12T13:16:44.013Z,86.46
2023-04-12T13:17:44.186Z,86.46
2023-04-12T13:18:43.992Z,86.98
2023-04-12T13:19:43.899Z,86.88
2023-04-12T13:20:43.929Z,86.36
2023-04-12T13:21:43.888Z,86.46
2023-04-12T13:22:44.170Z,85.85
2023-04-12T13:23:43.853Z,85.55
2023-04-12T13:24:43.875Z,85.50
2023-04-12T13:25:43.845Z,85.30
2023-04-12T13:26:43.850Z,85.10
2023-04-12T13:27:43.843Z,85.91
2023-04-12T13:28:43.838Z,86.02
2023-04-12T13:29:43.786Z,85.71
2023-04-12T13:30:43.806Z,84.69
2023-04-12T13:31:43.833Z,84.65
2023-04-12T13:32:43.841Z,85.26
2023-04-12T13:33:43.744Z,85.16
2023-04-12T13:34:43.763Z,85.26
2023-04-12T13:35:43.730Z,84.55
2023-04-12T13:36:43.752Z,84.55
2023-04-12T13:37:43.709Z,84.65
2023-04-12T13:38:43.771Z,84.71
2023-04-12T13:39:43.689Z,84.95
2023-04-12T13:40:43.811Z,85.12
2023-04-12T13:41:43.673Z,84.61
2023-04-12T13:42:43.697Z,84.50
2023-04-12T13:43:43.818Z,84.30
2023-04-12T13:44:43.656Z,84.30
2023-04-12T13:45:43.631Z,84.09
2023-04-12T13:46:43.640Z,84.36
2023-04-12T13:47:43.701Z,84.09
2023-04-12T13:48:43.614Z,84.20
2023-04-12T13:49:43.603Z,84.30
2023-04-12T13:50:43.612Z,84.61
2023-04-12T13:51:43.566Z,84.81
2023-04-12T13:52:43.574Z,84.50
2023-04-12T13:53:43.561Z,85.12
2023-04-12T13:54:43.552Z,84.81
2023-04-12T13:55:43.521Z,85.12
2023-04-12T13:56:43.549Z,85.12
2023-04-12T13:57:43.511Z,85.32
2023-04-12T13:58:43.523Z,85.53
2023-04-12T13:59:43.901Z,86.24
2023-04-12T14:00:43.521Z,86.55
2023-04-12T14:01:43.529Z,86.76
2023-04-12T14:02:43.582Z,87.06
2023-04-12T14:03:43.472Z,87.37
2023-04-12T14:04:43.479Z,87.06
2023-04-12T14:05:43.409Z,86.69
2023-04-12T14:06:43.429Z,86.18
2023-04-12T14:07:43.397Z,86.59
2023-04-12T14:08:43.425Z,87.10
2023-04-12T14:09:43.371Z,87.82
2023-04-12T14:10:43.424Z,88.64
2023-04-12T14:11:43.456Z,88.74
2023-04-12T14:12:43.364Z,89.45
2023-04-12T14:13:43.322Z,89.25
2023-04-12T14:14:43.431Z,89.65
2023-04-12T14:15:43.305Z,90.27
2023-04-12T14:16:43.404Z,90.17
2023-04-12T14:17:43.389Z,90.78
2023-04-12T14:18:43.305Z,90.72
2023-04-12T14:19:43.286Z,91.33
2023-04-12T14:20:43.301Z,91.64
2023-04-12T14:21:43.235Z,92.36
2023-04-12T14:22:43.244Z,92.97
2023-04-12T14:23:43.242Z,93.28
2023-04-12T14:24:43.234Z,93.73
2023-04-12T14:25:43.195Z,94.14
2023-04-12T14:26:43.212Z,94.45
2023-04-12T14:27:43.211Z,94.85
2023-04-12T14:28:43.209Z,95.57
2023-04-12T14:29:43.162Z,95.78
2023-04-12T14:30:43.200Z,95.47
2023-04-12T14:31:43.227Z,95.41
2023-04-12T14:32:45.145Z,95.06
2023-04-12T14:33:43.148Z,95.37
2023-04-12T14:34:43.162Z,95.37
2023-04-12T14:35:43.094Z,95.37
2023-04-12T14:36:43.144Z,95.47
2023-04-12T14:37:43.077Z,95.67
2023-04-12T14:38:43.081Z,95.47
2023-04-12T14:39:43.050Z,95.37
2023-04-12T14:40:43.061Z,95.37